Argentia, Canada
Current Conditions -  °F | °C
As of 5:00 AM on Tuesday 21 Oct 2014 (Local Time) from CYYT Reporting Station
Few Clouds Few Clouds  
Wind Chill: 36°   Ceiling: Unl
Heat Index: 45°   Visibility: 15mi
Dew Point: 39°   Wind: 23mph
Humidity: 81%   Direction: 260°W
Pressure: 29.82"   Gusts: 40mph
Location:  47.32°N, 53.95°W
Report Text: CYYT 210700Z 26020G35KT 15SM FEW025 07/04 A2982 RMK CU2 PRESRR SLP099
Loading
Personal Weather Stations






























Interactive Weather Map
Tropical Storm Tracking
New forecast layout! Learn more

10-Day Weather Forecast

Advertisements
Track Severe Weather on mobile